Abag Qi, China
Current Conditions -  °F | °C
As of 8:00 AM on Monday 22 Dec 2014 (Local Time) from ZBHH Reporting Station
Clear Clear  
Wind Chill: -9°   Ceiling: Unl
Heat Index:   Visibility: 5mi
Dew Point: -2°   Wind: 7mph
Humidity: 78%   Direction: 50°NE
Pressure: 30.24"   Gusts: NA
Location:  44.02°N, 114.95°E
Report Text: ZBHH 220000Z 05003MPS 360V080 8000 NSC M16/M19 Q1024 NOSIG
Loading
Personal Weather Stations






























Interactive Weather Map New forecast layout! Learn more

10-Day Weather Forecast

Advertisements
Track Severe Weather on mobile